sensor_id;sensor_type;location;lat;lon;timestamp;P1;durP1;ratioP1;P2;durP2;ratioP2
36303;SDS011;22335;49.800;8.596;2023-12-28T00:05:45;19.15;;;17.80;;
36303;SDS011;22335;49.800;8.596;2023-12-28T00:12:29;20.55;;;19.05;;
36303;SDS011;22335;49.800;8.596;2023-12-28T00:19:14;19.08;;;17.58;;
36303;SDS011;22335;49.800;8.596;2023-12-28T00:25:57;20.02;;;18.30;;
36303;SDS011;22335;49.800;8.596;2023-12-28T00:32:41;19.80;;;18.00;;
36303;SDS011;22335;49.800;8.596;2023-12-28T00:39:26;20.73;;;19.13;;
36303;SDS011;22335;49.800;8.596;2023-12-28T00:46:09;18.20;;;16.90;;
36303;SDS011;22335;49.800;8.596;2023-12-28T00:52:53;19.80;;;18.30;;
36303;SDS011;22335;49.800;8.596;2023-12-28T00:59:38;20.33;;;18.73;;
36303;SDS011;22335;49.800;8.596;2023-12-28T01:06:21;20.10;;;18.80;;
36303;SDS011;22335;49.800;8.596;2023-12-28T01:13:09;19.20;;;17.90;;
36303;SDS011;22335;49.800;8.596;2023-12-28T01:19:54;20.00;;;18.60;;
36303;SDS011;22335;49.800;8.596;2023-12-28T01:26:37;18.95;;;17.58;;
36303;SDS011;22335;49.800;8.596;2023-12-28T01:33:21;19.55;;;18.00;;
36303;SDS011;22335;49.800;8.596;2023-12-28T01:40:06;19.50;;;18.10;;
36303;SDS011;22335;49.800;8.596;2023-12-28T01:46:51;19.70;;;18.30;;
36303;SDS011;22335;49.800;8.596;2023-12-28T01:53:35;19.25;;;17.70;;
36303;SDS011;22335;49.800;8.596;2023-12-28T02:00:21;20.00;;;18.40;;
36303;SDS011;22335;49.800;8.596;2023-12-28T02:07:04;18.35;;;17.10;;
36303;SDS011;22335;49.800;8.596;2023-12-28T02:13:48;19.23;;;17.92;;
36303;SDS011;22335;49.800;8.596;2023-12-28T02:20:33;18.80;;;17.50;;
36303;SDS011;22335;49.800;8.596;2023-12-28T02:27:19;18.67;;;17.38;;
36303;SDS011;22335;49.800;8.596;2023-12-28T02:34:04;18.95;;;17.60;;
36303;SDS011;22335;49.800;8.596;2023-12-28T02:40:54;18.45;;;17.15;;
36303;SDS011;22335;49.800;8.596;2023-12-28T02:47:40;18.15;;;16.95;;
36303;SDS011;22335;49.800;8.596;2023-12-28T02:54:25;18.13;;;16.80;;
36303;SDS011;22335;49.800;8.596;2023-12-28T03:01:08;19.38;;;17.95;;
36303;SDS011;22335;49.800;8.596;2023-12-28T03:07:53;18.05;;;16.90;;
36303;SDS011;22335;49.800;8.596;2023-12-28T03:14:38;18.38;;;17.08;;
36303;SDS011;22335;49.800;8.596;2023-12-28T03:21:22;18.23;;;16.83;;
36303;SDS011;22335;49.800;8.596;2023-12-28T03:28:06;17.65;;;16.55;;
36303;SDS011;22335;49.800;8.596;2023-12-28T03:34:50;18.58;;;17.25;;
36303;SDS011;22335;49.800;8.596;2023-12-28T03:41:33;18.33;;;17.02;;
36303;SDS011;22335;49.800;8.596;2023-12-28T04:03:21;17.67;;;16.33;;
36303;SDS011;22335;49.800;8.596;2023-12-28T04:10:05;18.48;;;17.17;;
36303;SDS011;22335;49.800;8.596;2023-12-28T04:16:50;18.60;;;17.10;;
36303;SDS011;22335;49.800;8.596;2023-12-28T04:23:36;17.10;;;16.00;;
36303;SDS011;22335;49.800;8.596;2023-12-28T04:30:21;17.98;;;16.67;;
36303;SDS011;22335;49.800;8.596;2023-12-28T04:37:05;18.23;;;16.90;;
36303;SDS011;22335;49.800;8.596;2023-12-28T04:43:50;16.85;;;15.75;;
36303;SDS011;22335;49.800;8.596;2023-12-28T04:50:36;16.90;;;15.70;;
36303;SDS011;22335;49.800;8.596;2023-12-28T04:57:20;18.02;;;16.85;;
36303;SDS011;22335;49.800;8.596;2023-12-28T05:04:07;17.55;;;16.30;;
36303;SDS011;22335;49.800;8.596;2023-12-28T05:10:51;17.20;;;16.10;;
36303;SDS011;22335;49.800;8.596;2023-12-28T05:17:35;18.00;;;16.80;;
36303;SDS011;22335;49.800;8.596;2023-12-28T05:24:20;16.67;;;15.60;;
36303;SDS011;22335;49.800;8.596;2023-12-28T05:31:03;16.67;;;15.38;;
36303;SDS011;22335;49.800;8.596;2023-12-28T05:37:48;17.58;;;16.35;;
36303;SDS011;22335;49.800;8.596;2023-12-28T05:44:33;17.00;;;15.98;;
36303;SDS011;22335;49.800;8.596;2023-12-28T05:51:16;16.25;;;15.10;;
36303;SDS011;22335;49.800;8.596;2023-12-28T05:58:00;16.60;;;15.40;;
36303;SDS011;22335;49.800;8.596;2023-12-28T06:04:45;16.05;;;14.90;;
36303;SDS011;22335;49.800;8.596;2023-12-28T06:11:29;15.60;;;14.50;;
36303;SDS011;22335;49.800;8.596;2023-12-28T06:18:12;16.48;;;15.40;;
36303;SDS011;22335;49.800;8.596;2023-12-28T06:24:57;16.42;;;15.40;;
36303;SDS011;22335;49.800;8.596;2023-12-28T06:31:41;15.50;;;14.50;;
36303;SDS011;22335;49.800;8.596;2023-12-28T06:38:24;16.55;;;15.45;;
36303;SDS011;22335;49.800;8.596;2023-12-28T06:45:09;15.57;;;14.57;;
36303;SDS011;22335;49.800;8.596;2023-12-28T06:51:53;15.88;;;14.77;;
36303;SDS011;22335;49.800;8.596;2023-12-28T06:58:37;15.75;;;14.65;;
36303;SDS011;22335;49.800;8.596;2023-12-28T07:05:22;15.73;;;14.50;;
36303;SDS011;22335;49.800;8.596;2023-12-28T07:12:06;15.75;;;14.65;;
36303;SDS011;22335;49.800;8.596;2023-12-28T07:18:49;15.52;;;14.57;;
36303;SDS011;22335;49.800;8.596;2023-12-28T07:25:34;15.70;;;14.80;;
36303;SDS011;22335;49.800;8.596;2023-12-28T07:32:18;16.17;;;14.90;;
36303;SDS011;22335;49.800;8.596;2023-12-28T07:39:03;16.58;;;15.40;;
36303;SDS011;22335;49.800;8.596;2023-12-28T07:45:47;16.75;;;15.77;;
36303;SDS011;22335;49.800;8.596;2023-12-28T07:52:31;15.52;;;14.52;;
36303;SDS011;22335;49.800;8.596;2023-12-28T07:59:14;16.15;;;15.18;;
36303;SDS011;22335;49.800;8.596;2023-12-28T08:05:59;16.52;;;15.50;;
36303;SDS011;22335;49.800;8.596;2023-12-28T08:12:43;16.38;;;15.18;;
36303;SDS011;22335;49.800;8.596;2023-12-28T08:19:26;16.40;;;15.20;;
36303;SDS011;22335;49.800;8.596;2023-12-28T08:26:11;15.98;;;14.70;;
36303;SDS011;22335;49.800;8.596;2023-12-28T08:32:54;16.15;;;15.13;;
36303;SDS011;22335;49.800;8.596;2023-12-28T08:39:39;16.20;;;15.10;;
36303;SDS011;22335;49.800;8.596;2023-12-28T08:46:24;15.13;;;14.10;;
36303;SDS011;22335;49.800;8.596;2023-12-28T08:53:07;14.95;;;13.85;;
36303;SDS011;22335;49.800;8.596;2023-12-28T08:59:50;15.02;;;13.85;;
36303;SDS011;22335;49.800;8.596;2023-12-28T09:06:35;15.20;;;14.00;;
36303;SDS011;22335;49.800;8.596;2023-12-28T09:13:19;15.13;;;14.13;;
36303;SDS011;22335;49.800;8.596;2023-12-28T09:20:03;15.10;;;14.00;;
36303;SDS011;22335;49.800;8.596;2023-12-28T09:26:49;16.10;;;15.00;;
36303;SDS011;22335;49.800;8.596;2023-12-28T09:33:33;15.90;;;14.90;;
36303;SDS011;22335;49.800;8.596;2023-12-28T09:40:17;14.40;;;13.50;;
36303;SDS011;22335;49.800;8.596;2023-12-28T09:47:03;14.75;;;13.85;;
36303;SDS011;22335;49.800;8.596;2023-12-28T09:53:48;14.93;;;13.93;;
36303;SDS011;22335;49.800;8.596;2023-12-28T10:00:31;15.23;;;14.23;;
36303;SDS011;22335;49.800;8.596;2023-12-28T10:07:16;14.40;;;13.30;;
36303;SDS011;22335;49.800;8.596;2023-12-28T10:14:00;14.90;;;13.70;;
36303;SDS011;22335;49.800;8.596;2023-12-28T10:20:48;14.65;;;13.65;;
36303;SDS011;22335;49.800;8.596;2023-12-28T10:27:37;14.55;;;13.50;;
36303;SDS011;22335;49.800;8.596;2023-12-28T10:34:23;14.60;;;13.57;;
36303;SDS011;22335;49.800;8.596;2023-12-28T10:41:07;14.15;;;13.15;;
36303;SDS011;22335;49.800;8.596;2023-12-28T10:47:54;14.20;;;13.30;;
36303;SDS011;22335;49.800;8.596;2023-12-28T10:54:47;15.20;;;14.10;;
36303;SDS011;22335;49.800;8.596;2023-12-28T11:01:45;14.02;;;13.13;;
36303;SDS011;22335;49.800;8.596;2023-12-28T11:08:35;14.55;;;13.50;;
36303;SDS011;22335;49.800;8.596;2023-12-28T11:15:19;14.98;;;13.88;;
36303;SDS011;22335;49.800;8.596;2023-12-28T11:22:05;14.52;;;13.50;;
36303;SDS011;22335;49.800;8.596;2023-12-28T11:28:51;14.32;;;13.30;;
36303;SDS011;22335;49.800;8.596;2023-12-28T11:35:43;14.30;;;13.30;;
36303;SDS011;22335;49.800;8.596;2023-12-28T11:42:30;14.60;;;13.30;;
36303;SDS011;22335;49.800;8.596;2023-12-28T11:49:15;14.50;;;13.40;;
36303;SDS011;22335;49.800;8.596;2023-12-28T11:56:09;14.77;;;13.43;;
36303;SDS011;22335;49.800;8.596;2023-12-28T12:02:53;14.15;;;13.15;;
36303;SDS011;22335;49.800;8.596;2023-12-28T12:09:38;14.52;;;13.60;;
36303;SDS011;22335;49.800;8.596;2023-12-28T12:16:21;14.85;;;13.55;;
36303;SDS011;22335;49.800;8.596;2023-12-28T12:23:06;14.30;;;13.20;;
36303;SDS011;22335;49.800;8.596;2023-12-28T12:29:50;15.20;;;14.20;;
36303;SDS011;22335;49.800;8.596;2023-12-28T12:36:34;14.82;;;13.63;;
36303;SDS011;22335;49.800;8.596;2023-12-28T12:43:18;15.60;;;14.40;;
36303;SDS011;22335;49.800;8.596;2023-12-28T12:50:03;14.95;;;13.85;;
36303;SDS011;22335;49.800;8.596;2023-12-28T12:56:49;15.40;;;14.20;;
36303;SDS011;22335;49.800;8.596;2023-12-28T13:03:33;15.30;;;14.18;;
36303;SDS011;22335;49.800;8.596;2023-12-28T13:10:20;15.75;;;14.60;;
36303;SDS011;22335;49.800;8.596;2023-12-28T13:17:04;17.10;;;15.80;;
36303;SDS011;22335;49.800;8.596;2023-12-28T13:23:48;16.30;;;15.18;;
36303;SDS011;22335;49.800;8.596;2023-12-28T13:30:33;16.42;;;15.30;;
36303;SDS011;22335;49.800;8.596;2023-12-28T13:37:18;16.55;;;15.30;;
36303;SDS011;22335;49.800;8.596;2023-12-28T13:44:01;16.17;;;15.13;;
36303;SDS011;22335;49.800;8.596;2023-12-28T13:50:46;16.38;;;15.30;;
36303;SDS011;22335;49.800;8.596;2023-12-28T13:57:32;17.10;;;16.00;;
36303;SDS011;22335;49.800;8.596;2023-12-28T14:04:15;17.30;;;16.10;;
36303;SDS011;22335;49.800;8.596;2023-12-28T14:11:00;18.23;;;16.88;;
36303;SDS011;22335;49.800;8.596;2023-12-28T14:17:45;17.17;;;15.98;;
36303;SDS011;22335;49.800;8.596;2023-12-28T14:24:29;17.00;;;15.90;;
36303;SDS011;22335;49.800;8.596;2023-12-28T14:31:15;17.80;;;16.60;;
36303;SDS011;22335;49.800;8.596;2023-12-28T14:37:59;18.30;;;16.90;;
36303;SDS011;22335;49.800;8.596;2023-12-28T14:44:43;16.92;;;15.73;;
36303;SDS011;22335;49.800;8.596;2023-12-28T14:51:27;18.17;;;16.90;;
36303;SDS011;22335;49.800;8.596;2023-12-28T14:58:11;18.08;;;16.88;;
36303;SDS011;22335;49.800;8.596;2023-12-28T15:04:54;16.92;;;15.68;;
36303;SDS011;22335;49.800;8.596;2023-12-28T15:11:42;16.75;;;15.35;;
36303;SDS011;22335;49.800;8.596;2023-12-28T15:18:28;17.60;;;16.30;;
36303;SDS011;22335;49.800;8.596;2023-12-28T15:25:12;16.08;;;14.88;;
36303;SDS011;22335;49.800;8.596;2023-12-28T15:31:57;17.20;;;16.08;;
36303;SDS011;22335;49.800;8.596;2023-12-28T15:38:42;16.35;;;15.18;;
36303;SDS011;22335;49.800;8.596;2023-12-28T15:45:26;16.27;;;15.18;;
36303;SDS011;22335;49.800;8.596;2023-12-28T15:52:11;16.27;;;15.15;;
36303;SDS011;22335;49.800;8.596;2023-12-28T15:58:54;17.38;;;16.13;;
36303;SDS011;22335;49.800;8.596;2023-12-28T16:05:38;16.73;;;15.50;;
36303;SDS011;22335;49.800;8.596;2023-12-28T16:12:23;16.60;;;15.40;;
36303;SDS011;22335;49.800;8.596;2023-12-28T16:19:08;17.48;;;16.08;;
36303;SDS011;22335;49.800;8.596;2023-12-28T16:25:52;16.40;;;15.25;;
36303;SDS011;22335;49.800;8.596;2023-12-28T16:32:37;17.05;;;15.82;;
36303;SDS011;22335;49.800;8.596;2023-12-28T16:39:20;17.20;;;15.90;;
36303;SDS011;22335;49.800;8.596;2023-12-28T16:46:04;18.27;;;16.80;;
36303;SDS011;22335;49.800;8.596;2023-12-28T16:52:49;17.52;;;16.23;;
36303;SDS011;22335;49.800;8.596;2023-12-28T16:59:35;17.05;;;15.75;;
36303;SDS011;22335;49.800;8.596;2023-12-28T17:06:18;17.58;;;16.17;;
36303;SDS011;22335;49.800;8.596;2023-12-28T17:13:04;17.65;;;16.30;;
36303;SDS011;22335;49.800;8.596;2023-12-28T17:19:49;17.90;;;16.50;;
36303;SDS011;22335;49.800;8.596;2023-12-28T17:26:35;17.70;;;16.40;;
36303;SDS011;22335;49.800;8.596;2023-12-28T17:33:31;18.35;;;16.92;;
36303;SDS011;22335;49.800;8.596;2023-12-28T17:40:16;18.63;;;17.00;;
36303;SDS011;22335;49.800;8.596;2023-12-28T17:47:02;19.10;;;17.65;;
36303;SDS011;22335;49.800;8.596;2023-12-28T17:53:57;19.05;;;17.55;;
36303;SDS011;22335;49.800;8.596;2023-12-28T18:00:41;20.38;;;18.60;;
36303;SDS011;22335;49.800;8.596;2023-12-28T18:07:35;20.00;;;18.48;;
36303;SDS011;22335;49.800;8.596;2023-12-28T18:14:19;18.90;;;17.40;;
36303;SDS011;22335;49.800;8.596;2023-12-28T18:21:04;19.45;;;18.02;;
36303;SDS011;22335;49.800;8.596;2023-12-28T18:27:47;18.40;;;17.10;;
36303;SDS011;22335;49.800;8.596;2023-12-28T18:34:32;18.67;;;17.38;;
36303;SDS011;22335;49.800;8.596;2023-12-28T18:41:16;18.92;;;17.40;;
36303;SDS011;22335;49.800;8.596;2023-12-28T18:47:59;20.17;;;18.67;;
36303;SDS011;22335;49.800;8.596;2023-12-28T18:54:44;19.33;;;17.83;;
36303;SDS011;22335;49.800;8.596;2023-12-28T19:01:27;19.70;;;18.10;;
36303;SDS011;22335;49.800;8.596;2023-12-28T19:08:11;20.38;;;18.80;;
36303;SDS011;22335;49.800;8.596;2023-12-28T19:14:56;20.33;;;18.75;;
36303;SDS011;22335;49.800;8.596;2023-12-28T19:21:40;19.50;;;18.00;;
36303;SDS011;22335;49.800;8.596;2023-12-28T19:28:24;20.92;;;19.40;;
36303;SDS011;22335;49.800;8.596;2023-12-28T19:35:09;20.95;;;19.35;;
36303;SDS011;22335;49.800;8.596;2023-12-28T19:41:53;21.05;;;19.40;;
36303;SDS011;22335;49.800;8.596;2023-12-28T19:48:36;20.02;;;18.55;;
36303;SDS011;22335;49.800;8.596;2023-12-28T19:55:21;18.80;;;17.50;;
36303;SDS011;22335;49.800;8.596;2023-12-28T20:02:05;19.45;;;18.05;;
36303;SDS011;22335;49.800;8.596;2023-12-28T20:08:50;19.33;;;17.92;;
36303;SDS011;22335;49.800;8.596;2023-12-28T20:15:35;20.92;;;19.38;;
36303;SDS011;22335;49.800;8.596;2023-12-28T20:22:18;21.73;;;20.13;;
36303;SDS011;22335;49.800;8.596;2023-12-28T20:29:02;21.55;;;19.63;;
36303;SDS011;22335;49.800;8.596;2023-12-28T20:35:47;20.67;;;19.08;;
36303;SDS011;22335;49.800;8.596;2023-12-28T20:42:32;22.02;;;20.17;;
36303;SDS011;22335;49.800;8.596;2023-12-28T20:49:15;22.13;;;20.33;;
36303;SDS011;22335;49.800;8.596;2023-12-28T20:56:02;22.38;;;20.65;;
36303;SDS011;22335;49.800;8.596;2023-12-28T21:02:46;21.98;;;20.17;;
36303;SDS011;22335;49.800;8.596;2023-12-28T21:09:30;21.75;;;20.05;;
36303;SDS011;22335;49.800;8.596;2023-12-28T21:16:15;23.00;;;21.20;;
36303;SDS011;22335;49.800;8.596;2023-12-28T21:22:58;22.55;;;20.75;;
36303;SDS011;22335;49.800;8.596;2023-12-28T21:29:42;21.20;;;19.40;;
36303;SDS011;22335;49.800;8.596;2023-12-28T21:36:27;20.80;;;19.10;;
36303;SDS011;22335;49.800;8.596;2023-12-28T21:43:10;20.25;;;18.75;;
36303;SDS011;22335;49.800;8.596;2023-12-28T21:49:54;20.08;;;18.58;;
36303;SDS011;22335;49.800;8.596;2023-12-28T21:56:39;20.15;;;18.50;;
36303;SDS011;22335;49.800;8.596;2023-12-28T22:03:23;18.90;;;17.48;;
36303;SDS011;22335;49.800;8.596;2023-12-28T22:10:06;19.08;;;17.65;;
36303;SDS011;22335;49.800;8.596;2023-12-28T22:16:51;18.60;;;17.20;;
36303;SDS011;22335;49.800;8.596;2023-12-28T22:23:35;18.60;;;16.92;;
36303;SDS011;22335;49.800;8.596;2023-12-28T22:30:18;18.58;;;17.00;;
36303;SDS011;22335;49.800;8.596;2023-12-28T22:37:04;18.63;;;17.42;;
36303;SDS011;22335;49.800;8.596;2023-12-28T22:43:48;18.25;;;17.05;;
36303;SDS011;22335;49.800;8.596;2023-12-28T22:50:31;17.75;;;16.45;;
36303;SDS011;22335;49.800;8.596;2023-12-28T22:57:18;17.63;;;16.27;;
36303;SDS011;22335;49.800;8.596;2023-12-28T23:04:01;18.08;;;16.77;;
36303;SDS011;22335;49.800;8.596;2023-12-28T23:10:45;17.67;;;16.45;;
36303;SDS011;22335;49.800;8.596;2023-12-28T23:17:30;17.23;;;16.02;;
36303;SDS011;22335;49.800;8.596;2023-12-28T23:24:13;16.95;;;15.80;;
36303;SDS011;22335;49.800;8.596;2023-12-28T23:30:57;15.88;;;14.77;;
36303;SDS011;22335;49.800;8.596;2023-12-28T23:37:42;15.90;;;14.90;;
36303;SDS011;22335;49.800;8.596;2023-12-28T23:44:25;16.85;;;15.75;;
36303;SDS011;22335;49.800;8.596;2023-12-28T23:51:09;15.90;;;14.80;;
36303;SDS011;22335;49.800;8.596;2023-12-28T23:57:53;16.05;;;15.05;;
